createdAt,value
2018-02-07T00:00:23.172Z,30.60
2018-02-07T00:02:51.240Z,29.30
2018-02-07T00:05:19.111Z,28.97
2018-02-07T00:07:47.074Z,29.70
2018-02-07T00:10:15.158Z,27.17
2018-02-07T00:12:43.252Z,27.43
2018-02-07T00:15:11.519Z,28.17
2018-02-07T00:17:39.310Z,27.60
2018-02-07T00:20:07.971Z,25.90
2018-02-07T00:22:35.932Z,27.77
2018-02-07T00:25:03.809Z,26.63
2018-02-07T00:27:31.747Z,29.70
2018-02-07T00:29:59.745Z,27.73
2018-02-07T00:32:28.283Z,28.83
2018-02-07T00:34:56.079Z,29.63
2018-02-07T00:37:24.032Z,29.37
2018-02-07T00:39:51.793Z,30.67
2018-02-07T00:42:19.866Z,29.60
2018-02-07T00:44:47.848Z,33.40
2018-02-07T00:47:15.803Z,32.37
2018-02-07T00:49:43.995Z,30.87
2018-02-07T00:52:11.967Z,28.23
2018-02-07T00:54:40.250Z,31.20
2018-02-07T00:57:08.192Z,29.07
2018-02-07T00:59:36.056Z,30.73
2018-02-07T01:02:03.921Z,29.27
2018-02-07T01:04:31.813Z,30.63
2018-02-07T01:06:59.681Z,32.00
2018-02-07T01:09:27.828Z,31.87
2018-02-07T01:11:55.713Z,28.67
2018-02-07T01:14:23.583Z,29.60
2018-02-07T01:16:51.530Z,28.50
2018-02-07T01:19:19.391Z,30.37
2018-02-07T01:21:47.282Z,26.57
2018-02-07T01:24:15.230Z,26.27
2018-02-07T01:26:43.115Z,26.50
2018-02-07T01:29:11.473Z,28.80
2018-02-07T01:31:39.448Z,27.50
2018-02-07T01:34:07.446Z,29.60
2018-02-07T01:36:35.298Z,28.70
2018-02-07T01:39:03.166Z,28.70
2018-02-07T01:41:31.038Z,27.90
2018-02-07T01:43:58.789Z,27.17
2018-02-07T01:46:26.553Z,29.10
2018-02-07T01:48:54.566Z,28.43
2018-02-07T01:51:23.195Z,30.60
2018-02-07T01:53:51.282Z,29.20
2018-02-07T01:56:19.225Z,26.80
2018-02-07T01:58:47.198Z,32.33
2018-02-07T02:01:16.294Z,28.83
2018-02-07T02:03:44.162Z,29.13
2018-02-07T02:06:12.148Z,28.03
2018-02-07T02:08:40.161Z,27.47
2018-02-07T02:11:08.949Z,27.50
2018-02-07T02:13:37.673Z,27.37
2018-02-07T02:16:05.564Z,26.70
2018-02-07T02:18:33.408Z,30.93
2018-02-07T02:21:01.305Z,30.03
2018-02-07T02:23:29.162Z,28.43
2018-02-07T02:25:57.335Z,30.37
2018-02-07T02:28:25.199Z,30.27
2018-02-07T02:30:53.054Z,32.50
2018-02-07T02:33:20.946Z,30.77
2018-02-07T02:36:15.304Z,28.77
2018-02-07T02:38:43.268Z,29.03
2018-02-07T02:41:11.361Z,31.50
2018-02-07T02:43:39.311Z,30.40
2018-02-07T02:46:07.380Z,31.10
2018-02-07T02:48:35.275Z,31.33
2018-02-07T02:51:03.164Z,31.63
2018-02-07T02:53:31.711Z,33.93
2018-02-07T02:55:59.582Z,36.77
2018-02-07T02:58:27.970Z,35.67
2018-02-07T03:00:56.030Z,36.73
2018-02-07T03:03:23.902Z,34.53
2018-02-07T03:05:52.705Z,32.40
2018-02-07T03:08:20.454Z,35.70
2018-02-07T03:10:48.452Z,37.23
2018-02-07T03:13:16.667Z,34.93
2018-02-07T03:15:44.469Z,37.23
2018-02-07T03:18:12.508Z,36.63
2018-02-07T03:20:40.576Z,36.83
2018-02-07T03:23:08.909Z,34.90
2018-02-07T03:25:37.439Z,36.67
2018-02-07T03:28:05.325Z,34.10
2018-02-07T03:30:33.275Z,37.20
2018-02-07T03:33:01.054Z,34.20
2018-02-07T03:35:28.824Z,35.97
2018-02-07T03:37:56.798Z,37.10
2018-02-07T03:40:24.669Z,35.90
2018-02-07T03:42:52.710Z,35.77
2018-02-07T03:45:20.803Z,35.57
2018-02-07T03:47:48.650Z,37.07
2018-02-07T03:50:29.648Z,35.33
2018-02-07T03:52:57.585Z,35.77
2018-02-07T03:55:25.467Z,37.07
2018-02-07T04:00:45.904Z,36.80
2018-02-07T04:03:15.129Z,35.63
2018-02-07T04:05:43.634Z,35.50
2018-02-07T04:08:11.549Z,36.63
2018-02-07T04:10:39.668Z,35.10
2018-02-07T04:13:07.518Z,36.67
2018-02-07T04:15:35.994Z,36.70
2018-02-07T04:18:04.622Z,33.00
2018-02-07T04:20:32.398Z,35.00
2018-02-07T04:23:00.164Z,37.80
2018-02-07T04:25:27.931Z,39.07
2018-02-07T04:27:57.878Z,38.03
2018-02-07T04:30:25.923Z,36.53
2018-02-07T04:32:54.684Z,35.50
2018-02-07T04:35:22.512Z,35.73
2018-02-07T04:37:51.086Z,37.13
2018-02-07T04:40:19.626Z,37.87
2018-02-07T04:42:47.360Z,37.57
2018-02-07T04:45:15.425Z,35.70
2018-02-07T04:47:43.349Z,37.63
2018-02-07T04:50:11.912Z,34.70
2018-02-07T04:52:40.012Z,39.47
2018-02-07T04:55:07.848Z,36.53
2018-02-07T04:57:35.905Z,37.40
2018-02-07T05:00:03.986Z,35.67
2018-02-07T05:02:31.883Z,33.17
2018-02-07T05:04:59.901Z,36.70
2018-02-07T05:07:31.010Z,36.17
2018-02-07T05:09:59.504Z,34.67
2018-02-07T05:12:28.029Z,37.07
2018-02-07T05:17:39.557Z,35.27
2018-02-07T05:20:10.397Z,35.70
2018-02-07T05:22:38.431Z,36.93
2018-02-07T05:25:06.514Z,39.37
2018-02-07T05:27:34.462Z,39.27
2018-02-07T05:30:03.166Z,38.53
2018-02-07T05:32:31.237Z,37.00
2018-02-07T05:34:59.056Z,35.20
2018-02-07T05:37:27.712Z,41.00
2018-02-07T05:39:55.474Z,38.97
2018-02-07T05:42:23.404Z,35.13
2018-02-07T05:44:51.358Z,36.90
2018-02-07T05:47:19.276Z,37.37
2018-02-07T05:49:47.150Z,37.90
2018-02-07T05:52:15.008Z,50.90
2018-02-07T05:54:43.062Z,59.80
2018-02-07T05:57:11.028Z,52.80
2018-02-07T05:59:39.043Z,45.90
2018-02-07T06:02:07.785Z,44.47
2018-02-07T06:04:35.652Z,38.87
2018-02-07T06:07:03.442Z,36.53
2018-02-07T06:09:31.584Z,40.40
2018-02-07T06:11:59.483Z,39.30
2018-02-07T06:14:27.422Z,36.30
2018-02-07T06:16:55.290Z,39.10
2018-02-07T06:19:23.076Z,34.87
2018-02-07T06:21:51.021Z,36.97
2018-02-07T06:24:19.091Z,36.07
2018-02-07T06:26:46.978Z,37.97
2018-02-07T06:29:15.064Z,37.30
2018-02-07T06:31:42.919Z,40.10
2018-02-07T06:34:10.798Z,39.17
2018-02-07T06:36:38.662Z,38.27
2018-02-07T06:39:06.528Z,37.17
2018-02-07T06:41:34.468Z,35.13
2018-02-07T06:44:02.247Z,36.27
2018-02-07T06:46:30.202Z,35.03
2018-02-07T06:48:58.089Z,36.43
2018-02-07T06:51:26.029Z,39.00
2018-02-07T06:53:53.900Z,36.67
2018-02-07T06:56:21.811Z,37.30
2018-02-07T06:58:50.481Z,39.87
2018-02-07T07:01:18.359Z,38.83
2018-02-07T07:03:46.923Z,40.80
2018-02-07T07:06:14.869Z,39.70
2018-02-07T07:08:42.838Z,38.50
2018-02-07T07:11:10.808Z,41.60
2018-02-07T07:13:38.727Z,35.87
2018-02-07T07:16:07.287Z,35.97
2018-02-07T07:18:35.147Z,36.57
2018-02-07T07:21:02.988Z,36.90
2018-02-07T07:23:30.969Z,35.70
2018-02-07T07:25:58.924Z,36.47
2018-02-07T07:28:26.921Z,35.03
2018-02-07T07:30:54.684Z,34.70
2018-02-07T07:33:22.692Z,39.00
2018-02-07T07:35:50.592Z,39.30
2018-02-07T07:38:18.338Z,34.63
2018-02-07T07:40:46.227Z,38.57
2018-02-07T07:43:14.090Z,39.40
2018-02-07T07:45:41.960Z,34.10
2018-02-07T07:48:09.771Z,35.20
2018-02-07T07:50:38.410Z,38.10
2018-02-07T07:53:06.607Z,36.50
2018-02-07T07:55:34.552Z,37.43
2018-02-07T07:58:02.437Z,37.00
2018-02-07T08:00:30.317Z,33.53
2018-02-07T08:02:58.174Z,38.03
2018-02-07T08:05:26.217Z,38.90
2018-02-07T08:07:54.095Z,37.50
2018-02-07T08:10:21.953Z,39.57
2018-02-07T08:12:49.767Z,34.27
2018-02-07T08:15:18.506Z,37.03
2018-02-07T08:17:46.374Z,40.47
2018-02-07T08:20:14.262Z,37.23
2018-02-07T08:22:42.231Z,34.67
2018-02-07T08:25:10.100Z,34.50
2018-02-07T08:27:38.069Z,39.30
2018-02-07T08:30:05.934Z,39.53
2018-02-07T08:32:33.703Z,38.90
2018-02-07T08:35:01.673Z,39.70
2018-02-07T08:37:29.609Z,37.27
2018-02-07T08:39:57.477Z,40.67
2018-02-07T08:42:25.313Z,41.40
2018-02-07T08:44:53.135Z,42.47
2018-02-07T08:47:21.085Z,46.00
2018-02-07T08:49:49.050Z,44.67
2018-02-07T08:52:17.013Z,38.63
2018-02-07T08:54:44.981Z,40.67
2018-02-07T08:57:13.155Z,37.97
2018-02-07T08:59:41.054Z,37.47
2018-02-07T09:02:08.920Z,39.30
2018-02-07T09:04:36.975Z,40.47
2018-02-07T09:07:04.926Z,39.07
2018-02-07T09:09:32.808Z,36.40
2018-02-07T09:12:00.765Z,36.70
2018-02-07T09:14:28.670Z,39.53
2018-02-07T09:16:57.234Z,40.10
2018-02-07T09:19:25.248Z,39.37
2018-02-07T09:21:53.073Z,36.73
2018-02-07T09:24:21.733Z,36.97
2018-02-07T09:26:49.701Z,35.33
2018-02-07T09:29:17.593Z,37.90
2018-02-07T09:31:45.620Z,38.87
2018-02-07T09:34:13.610Z,39.67
2018-02-07T09:36:41.478Z,36.57
2018-02-07T09:39:09.463Z,40.23
2018-02-07T09:41:37.418Z,38.20
2018-02-07T09:44:05.376Z,36.73
2018-02-07T09:46:33.269Z,37.27
2018-02-07T09:49:01.043Z,36.97
2018-02-07T09:51:28.980Z,36.30
2018-02-07T09:53:56.949Z,36.20
2018-02-07T09:56:24.957Z,34.53
2018-02-07T09:58:53.604Z,35.67
2018-02-07T10:01:22.300Z,36.00
2018-02-07T10:03:50.188Z,33.57
2018-02-07T10:06:19.045Z,35.90
2018-02-07T10:08:46.933Z,36.30
2018-02-07T10:11:14.881Z,36.13
2018-02-07T10:13:42.771Z,36.47
2018-02-07T10:16:11.045Z,36.47
2018-02-07T10:18:38.921Z,36.50
2018-02-07T10:21:07.697Z,40.17
2018-02-07T10:23:35.578Z,37.07
2018-02-07T10:26:03.406Z,34.90
2018-02-07T10:28:32.230Z,35.90
2018-02-07T10:31:00.298Z,36.37
2018-02-07T10:33:30.132Z,36.83
2018-02-07T10:35:59.807Z,37.87
2018-02-07T10:38:31.632Z,36.97
2018-02-07T10:40:59.530Z,35.03
2018-02-07T10:43:27.690Z,39.00
2018-02-07T10:45:55.763Z,35.40
2018-02-07T10:48:23.674Z,38.13
2018-02-07T10:50:52.267Z,35.97
2018-02-07T10:53:20.997Z,36.73
2018-02-07T10:55:48.984Z,36.53
2018-02-07T10:58:16.854Z,35.70
2018-02-07T11:00:44.618Z,35.20
2018-02-07T11:03:12.485Z,40.43
2018-02-07T11:05:40.324Z,35.30
2018-02-07T11:08:08.402Z,35.70
2018-02-07T11:10:36.412Z,37.13
2018-02-07T11:13:04.410Z,37.77
2018-02-07T11:15:32.227Z,36.83
2018-02-07T11:18:00.010Z,37.60
2018-02-07T11:20:28.758Z,33.60
2018-02-07T11:22:56.725Z,38.03
2018-02-07T11:25:24.614Z,35.67
2018-02-07T11:27:52.601Z,35.73
2018-02-07T11:30:21.254Z,40.30
2018-02-07T11:32:49.049Z,40.47
2018-02-07T11:35:17.720Z,38.50
2018-02-07T11:37:46.382Z,35.10
2018-02-07T11:40:14.247Z,35.70
2018-02-07T11:42:42.136Z,39.30
2018-02-07T11:45:10.079Z,38.87
2018-02-07T11:47:37.832Z,40.27
2018-02-07T11:50:05.734Z,37.20
2018-02-07T11:52:33.603Z,39.20
2018-02-07T11:55:01.477Z,42.80
2018-02-07T11:57:29.333Z,36.00
2018-02-07T11:59:57.104Z,38.20
2018-02-07T12:02:24.942Z,36.60
2018-02-07T12:04:52.729Z,39.23
2018-02-07T12:07:20.573Z,39.30
2018-02-07T12:09:48.363Z,43.53
2018-02-07T12:12:16.204Z,39.00
2018-02-07T12:14:44.228Z,43.87
2018-02-07T12:17:12.896Z,41.43
2018-02-07T12:19:40.822Z,43.10
2018-02-07T12:22:08.739Z,39.00
2018-02-07T12:24:37.296Z,41.73
2018-02-07T12:27:05.067Z,42.77
2018-02-07T12:29:32.950Z,39.57
2018-02-07T12:32:01.693Z,39.47
2018-02-07T12:34:30.402Z,40.33
2018-02-07T12:36:58.222Z,38.60
2018-02-07T12:39:26.064Z,39.67
2018-02-07T12:41:54.804Z,41.37
2018-02-07T12:44:22.585Z,39.37
2018-02-07T12:46:50.526Z,42.80
2018-02-07T12:49:18.420Z,40.90
2018-02-07T12:51:46.293Z,39.80
2018-02-07T12:54:14.471Z,37.87
2018-02-07T12:56:42.327Z,41.03
2018-02-07T12:59:11.131Z,37.90
2018-02-07T13:01:38.984Z,39.70
2018-02-07T13:04:07.029Z,39.30
2018-02-07T13:06:34.815Z,41.47
2018-02-07T13:09:02.680Z,42.87
2018-02-07T13:11:30.633Z,40.57
2018-02-07T13:13:58.515Z,38.23
2018-02-07T13:16:26.465Z,42.80
2018-02-07T13:18:54.348Z,41.60
2018-02-07T13:21:22.239Z,42.37
2018-02-07T13:23:50.814Z,38.40
2018-02-07T13:26:18.787Z,41.53
2018-02-07T13:28:46.636Z,39.33
2018-02-07T13:31:14.583Z,41.93
2018-02-07T13:33:42.369Z,44.70
2018-02-07T13:36:10.229Z,36.70
2018-02-07T13:38:38.100Z,41.10
2018-02-07T13:41:06.074Z,40.77
2018-02-07T13:43:33.912Z,39.40
2018-02-07T13:46:01.688Z,41.13
2018-02-07T13:48:30.288Z,39.87
2018-02-07T13:50:58.358Z,42.23
2018-02-07T13:53:26.221Z,42.00
2018-02-07T13:55:54.083Z,42.40
2018-02-07T13:58:22.034Z,41.33
2018-02-07T14:00:53.712Z,39.97
2018-02-07T14:03:21.779Z,42.50
2018-02-07T14:05:49.750Z,41.10
2018-02-07T14:08:17.512Z,43.03
2018-02-07T14:10:45.461Z,40.73
2018-02-07T14:13:13.430Z,40.40
2018-02-07T14:15:41.326Z,42.90
2018-02-07T14:18:09.170Z,42.00
2018-02-07T14:20:37.976Z,35.83
2018-02-07T14:23:05.922Z,39.73
2018-02-07T14:25:33.711Z,43.37
2018-02-07T14:28:01.686Z,43.00
2018-02-07T14:30:29.609Z,41.40
2018-02-07T14:32:57.407Z,42.17
2018-02-07T14:35:25.352Z,42.73
2018-02-07T14:37:53.250Z,44.13
2018-02-07T14:40:21.214Z,42.00
2018-02-07T14:42:49.268Z,43.90
2018-02-07T14:45:17.046Z,44.37
2018-02-07T14:47:44.994Z,41.43
2018-02-07T14:50:12.785Z,43.57
2018-02-07T14:52:40.550Z,41.70
2018-02-07T14:55:08.331Z,38.90
2018-02-07T14:57:36.972Z,39.73
2018-02-07T15:00:05.790Z,41.67
2018-02-07T15:02:33.637Z,39.97
2018-02-07T15:05:01.373Z,39.87
2018-02-07T15:07:29.972Z,40.30
2018-02-07T15:09:57.759Z,44.83
2018-02-07T15:12:26.363Z,40.60
2018-02-07T15:14:55.107Z,41.57
2018-02-07T15:17:23.078Z,39.50
2018-02-07T15:19:51.467Z,39.47
2018-02-07T15:22:19.736Z,40.10
2018-02-07T15:24:47.820Z,42.50
2018-02-07T15:27:15.778Z,41.20
2018-02-07T15:29:43.775Z,41.10
2018-02-07T15:32:12.529Z,40.00
2018-02-07T15:34:40.832Z,40.70
2018-02-07T15:37:08.698Z,41.97
2018-02-07T15:39:36.609Z,37.27
2018-02-07T15:42:04.537Z,44.10
2018-02-07T15:44:32.372Z,41.90
2018-02-07T15:47:00.205Z,42.80
2018-02-07T15:49:28.224Z,42.17
2018-02-07T15:51:56.019Z,42.10
2018-02-07T15:54:24.672Z,40.57
2018-02-07T15:56:52.448Z,41.77
2018-02-07T15:59:20.324Z,39.67
2018-02-07T16:01:48.887Z,42.30
2018-02-07T16:04:16.847Z,43.67
2018-02-07T16:06:45.011Z,38.73
2018-02-07T16:09:12.983Z,38.57
2018-02-07T16:11:40.948Z,39.50
2018-02-07T16:14:08.838Z,40.73
2018-02-07T16:16:36.886Z,39.10
2018-02-07T16:19:04.778Z,43.07
2018-02-07T16:21:33.234Z,43.13
2018-02-07T16:24:01.101Z,46.53
2018-02-07T16:26:29.495Z,44.13
2018-02-07T16:28:57.287Z,43.80
2018-02-07T16:31:25.851Z,40.50
2018-02-07T16:33:53.893Z,41.50
2018-02-07T16:36:21.783Z,41.50
2018-02-07T16:38:49.840Z,40.93
2018-02-07T16:41:17.586Z,38.93
2018-02-07T16:43:45.354Z,44.13
2018-02-07T16:46:13.227Z,41.70
2018-02-07T16:48:41.220Z,45.13
2018-02-07T16:51:09.192Z,42.37
2018-02-07T16:53:37.049Z,43.40
2018-02-07T16:56:05.923Z,43.90
2018-02-07T16:58:33.772Z,44.20
2018-02-07T17:01:01.693Z,44.30
2018-02-07T17:03:29.644Z,43.73
2018-02-07T17:05:57.694Z,42.70
2018-02-07T17:08:26.381Z,44.33
2018-02-07T17:10:54.896Z,44.20
2018-02-07T17:13:22.828Z,41.90
2018-02-07T17:15:50.725Z,42.57
2018-02-07T17:18:18.658Z,46.23
2018-02-07T17:20:46.452Z,49.67
2018-02-07T17:23:14.394Z,50.00
2018-02-07T17:25:42.366Z,51.90
2018-02-07T17:28:10.259Z,50.40
2018-02-07T17:30:38.205Z,54.30
2018-02-07T17:33:06.067Z,58.97
2018-02-07T17:35:33.890Z,55.50
2018-02-07T17:38:02.407Z,51.43
2018-02-07T17:40:30.315Z,52.47
2018-02-07T17:42:58.353Z,51.20
2018-02-07T17:45:26.218Z,53.83
2018-02-07T17:47:54.494Z,53.40
2018-02-07T17:50:22.916Z,52.87
2018-02-07T17:52:51.558Z,55.10
2018-02-07T17:55:19.443Z,58.20
2018-02-07T17:57:47.392Z,55.87
2018-02-07T18:00:15.466Z,55.60
2018-02-07T18:02:43.355Z,49.63
2018-02-07T18:05:11.241Z,54.67
2018-02-07T18:07:39.763Z,48.10
2018-02-07T18:10:07.644Z,49.17
2018-02-07T18:12:35.451Z,48.63
2018-02-07T18:15:03.321Z,51.17
2018-02-07T18:17:32.882Z,50.87
2018-02-07T18:20:00.854Z,51.10
2018-02-07T18:22:29.127Z,47.43
2018-02-07T18:24:56.997Z,49.47
2018-02-07T18:27:24.861Z,49.20
2018-02-07T18:29:52.872Z,48.87
2018-02-07T18:32:20.727Z,48.27
2018-02-07T18:34:48.668Z,48.47
2018-02-07T18:37:16.634Z,47.97
2018-02-07T18:39:44.604Z,46.20
2018-02-07T18:42:12.574Z,46.33
2018-02-07T18:44:41.462Z,47.53
2018-02-07T18:47:10.691Z,46.60
2018-02-07T18:49:38.631Z,45.57
2018-02-07T18:52:06.596Z,48.97
2018-02-07T18:54:34.773Z,50.40
2018-02-07T18:57:02.741Z,49.03
2018-02-07T18:59:30.601Z,54.13
2018-02-07T19:01:58.602Z,50.37
2018-02-07T19:04:26.645Z,47.13
2018-02-07T19:06:54.542Z,48.53
2018-02-07T19:09:22.398Z,49.43
2018-02-07T19:11:50.453Z,51.00
2018-02-07T19:14:18.455Z,50.47
2018-02-07T19:16:49.156Z,47.80
2018-02-07T19:19:18.789Z,55.13
2018-02-07T19:21:51.649Z,57.03
2018-02-07T19:24:25.208Z,50.13
2018-02-07T19:27:07.141Z,53.13
2018-02-07T19:29:36.346Z,57.27
2018-02-07T19:32:05.695Z,56.40
2018-02-07T19:34:40.629Z,58.80
2018-02-07T19:37:09.363Z,55.80
2018-02-07T19:39:37.391Z,60.00
2018-02-07T19:42:06.335Z,56.27
2018-02-07T19:44:35.310Z,58.50
2018-02-07T19:47:05.784Z,60.90
2018-02-07T19:49:35.779Z,52.97
2018-02-07T19:52:10.605Z,59.00
2018-02-07T19:54:40.686Z,59.87
2018-02-07T19:57:15.225Z,55.67
2018-02-07T19:59:43.706Z,66.20
2018-02-07T20:02:15.238Z,65.97
2018-02-07T20:04:47.495Z,64.77
2018-02-07T20:07:17.707Z,71.50
2018-02-07T20:09:47.367Z,64.37
2018-02-07T20:12:16.852Z,65.73
2018-02-07T20:14:46.876Z,66.50
2018-02-07T20:17:15.569Z,70.80
2018-02-07T20:19:50.676Z,68.83
2018-02-07T20:22:19.888Z,70.33
2018-02-07T20:24:49.210Z,61.67
2018-02-07T20:27:20.296Z,58.57
2018-02-07T20:29:50.141Z,62.67
2018-02-07T20:32:20.257Z,58.90
2018-02-07T20:34:51.078Z,66.57
2018-02-07T20:37:19.392Z,77.93
2018-02-07T20:39:48.208Z,57.40
2018-02-07T20:42:20.101Z,59.03
2018-02-07T20:44:53.625Z,61.13
2018-02-07T20:47:22.756Z,68.43
2018-02-07T20:49:52.168Z,67.57
2018-02-07T20:52:41.428Z,67.07
2018-02-07T20:55:10.085Z,70.67
2018-02-07T20:57:39.051Z,64.33
2018-02-07T21:00:07.868Z,67.63
2018-02-07T21:02:37.731Z,63.27
2018-02-07T21:05:06.678Z,74.43
2018-02-07T21:07:36.145Z,66.33
2018-02-07T21:10:04.827Z,63.57
2018-02-07T21:15:20.157Z,62.23
2018-02-07T21:17:49.314Z,66.33
2018-02-07T21:20:27.373Z,64.03
2018-02-07T21:22:55.329Z,64.63
2018-02-07T21:25:24.956Z,68.07
2018-02-07T21:27:55.957Z,61.37
2018-02-07T21:30:25.417Z,63.17
2018-02-07T21:32:54.334Z,74.60
2018-02-07T21:35:23.361Z,63.43
2018-02-07T21:37:52.734Z,64.40
2018-02-07T21:40:21.551Z,70.47
2018-02-07T21:42:54.421Z,62.97
2018-02-07T21:45:27.813Z,60.93
2018-02-07T21:47:55.693Z,64.97
2018-02-07T21:50:23.663Z,57.70
2018-02-07T21:52:51.633Z,64.43
2018-02-07T21:55:20.100Z,67.93
2018-02-07T21:57:48.092Z,60.60
2018-02-07T22:00:19.944Z,65.57
2018-02-07T22:02:47.848Z,59.40
2018-02-07T22:05:16.700Z,57.50
2018-02-07T22:07:44.665Z,60.67
2018-02-07T22:10:12.638Z,60.73
2018-02-07T22:12:40.515Z,63.27
2018-02-07T22:15:08.473Z,55.20
2018-02-07T22:17:36.368Z,61.53
2018-02-07T22:20:04.305Z,61.80
2018-02-07T22:22:32.294Z,57.90
2018-02-07T22:25:00.144Z,53.13
2018-02-07T22:27:28.019Z,52.80
2018-02-07T22:29:55.977Z,58.10
2018-02-07T22:32:23.978Z,59.97
2018-02-07T22:34:52.055Z,60.80
2018-02-07T22:37:20.752Z,58.30
2018-02-07T22:39:49.431Z,52.47
2018-02-07T22:42:18.197Z,54.97
2018-02-07T22:44:46.886Z,51.93
2018-02-07T22:47:14.839Z,51.77
2018-02-07T22:49:42.809Z,51.40
2018-02-07T22:52:10.765Z,51.67
2018-02-07T22:54:38.778Z,50.70
2018-02-07T22:57:07.363Z,51.67
2018-02-07T22:59:36.287Z,49.93
2018-02-07T23:02:04.178Z,52.40
2018-02-07T23:04:32.021Z,51.10
2018-02-07T23:06:59.934Z,51.63
2018-02-07T23:09:27.816Z,52.50
2018-02-07T23:11:55.946Z,49.70
2018-02-07T23:14:23.919Z,51.80
2018-02-07T23:16:51.703Z,46.20
2018-02-07T23:19:19.897Z,47.50
2018-02-07T23:21:48.542Z,45.87
2018-02-07T23:24:16.513Z,47.80
2018-02-07T23:26:44.481Z,48.80
2018-02-07T23:29:13.408Z,47.03
2018-02-07T23:31:43.024Z,41.10
2018-02-07T23:34:11.761Z,50.30
2018-02-07T23:36:39.732Z,54.00
2018-02-07T23:39:07.916Z,47.87
2018-02-07T23:41:36.080Z,45.73
2018-02-07T23:44:04.155Z,44.23
2018-02-07T23:46:32.932Z,47.27
2018-02-07T23:49:00.757Z,50.63
2018-02-07T23:51:29.439Z,63.17
2018-02-07T23:53:58.476Z,63.30
2018-02-07T23:56:26.770Z,67.10
2018-02-07T23:58:54.666Z,56.50
